createdAt,value
2018-05-03T00:01:29.020Z,10.70
2018-05-03T00:04:31.474Z,10.59
2018-05-03T00:07:34.041Z,10.51
2018-05-03T00:10:36.596Z,10.42
2018-05-03T00:13:39.172Z,10.52
2018-05-03T00:16:41.627Z,10.55
2018-05-03T00:19:44.193Z,10.59
2018-05-03T00:22:46.671Z,10.63
2018-05-03T00:25:49.116Z,10.62
2018-05-03T00:28:51.630Z,10.68
2018-05-03T00:31:54.140Z,10.97
2018-05-03T00:34:56.667Z,10.87
2018-05-03T00:37:59.150Z,10.84
2018-05-03T00:41:01.641Z,10.75
2018-05-03T00:44:04.186Z,10.70
2018-05-03T00:47:06.672Z,10.64
2018-05-03T00:50:09.123Z,10.62
2018-05-03T00:53:11.669Z,10.73
2018-05-03T00:56:14.147Z,10.63
2018-05-03T00:59:16.670Z,10.71
2018-05-03T01:02:19.155Z,10.71
2018-05-03T01:05:21.717Z,10.63
2018-05-03T01:08:24.177Z,10.55
2018-05-03T01:11:26.641Z,10.60
2018-05-03T01:14:29.200Z,10.55
2018-05-03T01:17:31.737Z,10.52
2018-05-03T01:20:34.228Z,10.49
2018-05-03T01:23:36.733Z,10.46
2018-05-03T01:26:39.173Z,10.46
2018-05-03T01:29:41.643Z,10.52
2018-05-03T01:32:44.170Z,10.44
2018-05-03T01:35:58.420Z,10.40
2018-05-03T01:39:00.846Z,10.29
2018-05-03T01:42:03.351Z,10.29
2018-05-03T01:45:05.847Z,10.22
2018-05-03T01:48:08.293Z,10.24
2018-05-03T01:51:10.769Z,10.22
2018-05-03T01:54:13.250Z,10.18
2018-05-03T01:57:15.743Z,10.20
2018-05-03T02:00:18.182Z,10.14
2018-05-03T02:03:20.652Z,10.07
2018-05-03T02:06:23.111Z,10.04
2018-05-03T02:09:25.666Z,10.03
2018-05-03T02:12:28.130Z,9.96
2018-05-03T02:15:30.686Z,10.06
2018-05-03T02:18:33.153Z,10.01
2018-05-03T02:21:35.715Z,9.93
2018-05-03T02:24:38.212Z,9.91
2018-05-03T02:27:40.746Z,9.91
2018-05-03T02:30:43.213Z,10.00
2018-05-03T02:33:45.696Z,9.90
2018-05-03T02:36:48.211Z,9.82
2018-05-03T02:39:50.634Z,9.84
2018-05-03T02:42:53.131Z,9.92
2018-05-03T02:45:55.628Z,9.88
2018-05-03T02:48:58.163Z,9.78
2018-05-03T02:52:00.572Z,9.78
2018-05-03T02:55:03.088Z,9.72
2018-05-03T02:58:18.438Z,9.70
2018-05-03T03:01:38.386Z,9.71
2018-05-03T03:04:58.306Z,9.67
2018-05-03T03:12:28.884Z,9.85
2018-05-03T03:15:43.787Z,9.85
2018-05-03T03:19:12.919Z,9.83
2018-05-03T03:22:32.928Z,9.97
2018-05-03T03:25:59.684Z,9.99
2018-05-03T03:29:19.642Z,9.93
2018-05-03T03:32:33.848Z,9.85
2018-05-03T03:35:57.854Z,9.82
2018-05-03T03:39:12.104Z,9.85
2018-05-03T03:42:25.463Z,9.90
2018-05-03T03:45:28.006Z,9.86
2018-05-03T03:48:30.441Z,9.81
2018-05-03T03:51:32.969Z,9.98
2018-05-03T03:54:35.408Z,9.99
2018-05-03T03:57:37.858Z,10.11
2018-05-03T04:00:40.344Z,10.23
2018-05-03T04:03:42.928Z,10.30
2018-05-03T04:06:45.414Z,10.37
2018-05-03T04:09:47.892Z,10.50
2018-05-03T04:12:50.454Z,10.56
2018-05-03T04:15:52.949Z,10.65
2018-05-03T04:19:07.135Z,10.69
2018-05-03T04:22:21.380Z,10.74
2018-05-03T04:28:59.970Z,10.83
2018-05-03T04:32:02.543Z,10.84
2018-05-03T04:35:05.030Z,10.88
2018-05-03T04:38:07.503Z,10.93
2018-05-03T04:41:09.954Z,11.01
2018-05-03T04:44:12.538Z,10.96
2018-05-03T04:47:15.035Z,11.01
2018-05-03T04:50:17.539Z,11.00
2018-05-03T04:53:19.980Z,11.02
2018-05-03T04:56:22.523Z,10.98
2018-05-03T04:59:24.987Z,10.95
2018-05-03T05:02:27.450Z,10.93
2018-05-03T05:05:29.919Z,10.94
2018-05-03T05:08:32.345Z,10.92
2018-05-03T05:11:34.823Z,10.93
2018-05-03T05:14:37.285Z,10.86
2018-05-03T05:17:39.900Z,10.98
2018-05-03T05:20:42.341Z,10.90
2018-05-03T05:23:44.835Z,10.84
2018-05-03T05:26:47.286Z,10.95
2018-05-03T05:29:49.850Z,10.92
2018-05-03T05:32:52.319Z,10.90
2018-05-03T05:35:54.806Z,10.98
2018-05-03T05:38:57.376Z,10.95
2018-05-03T05:41:59.854Z,10.98
2018-05-03T05:45:02.382Z,11.02
2018-05-03T05:48:05.005Z,11.22
2018-05-03T05:51:07.573Z,11.16
2018-05-03T05:54:10.045Z,11.14
2018-05-03T05:57:12.574Z,11.03
2018-05-03T06:00:15.146Z,10.86
2018-05-03T06:03:17.594Z,11.31
2018-05-03T06:06:20.076Z,11.39
2018-05-03T06:09:22.621Z,11.72
2018-05-03T06:12:25.153Z,11.34
2018-05-03T06:15:27.586Z,11.20
2018-05-03T06:18:30.137Z,11.32
2018-05-03T06:21:32.607Z,11.37
2018-05-03T06:24:35.076Z,11.49
2018-05-03T06:27:37.619Z,11.46
2018-05-03T06:30:40.090Z,11.62
2018-05-03T06:33:42.566Z,11.90
2018-05-03T06:36:45.052Z,12.23
2018-05-03T06:39:47.474Z,12.03
2018-05-03T06:42:49.950Z,12.05
2018-05-03T06:45:52.490Z,12.76
2018-05-03T06:48:54.950Z,12.25
2018-05-03T06:51:57.456Z,11.97
2018-05-03T06:54:59.892Z,12.16
2018-05-03T06:58:02.445Z,11.93
2018-05-03T07:01:04.953Z,11.64
2018-05-03T07:04:07.562Z,11.54
2018-05-03T07:07:09.970Z,11.74
2018-05-03T07:10:12.482Z,11.84
2018-05-03T07:13:14.925Z,11.62
2018-05-03T07:16:17.497Z,11.94
2018-05-03T07:19:19.967Z,11.68
2018-05-03T07:22:22.445Z,12.14
2018-05-03T07:25:24.941Z,12.18
2018-05-03T07:28:27.569Z,12.52
2018-05-03T07:31:30.009Z,12.45
2018-05-03T07:34:32.477Z,12.63
2018-05-03T07:37:34.967Z,12.81
2018-05-03T07:40:37.496Z,12.55
2018-05-03T07:43:40.033Z,12.22
2018-05-03T07:46:42.566Z,12.38
2018-05-03T07:49:45.080Z,12.56
2018-05-03T07:52:47.528Z,12.60
2018-05-03T07:55:50.000Z,12.56
2018-05-03T07:58:52.568Z,12.42
2018-05-03T08:01:55.048Z,12.43
2018-05-03T08:04:57.592Z,12.67
2018-05-03T08:08:00.068Z,13.04
2018-05-03T08:11:02.626Z,13.07
2018-05-03T08:14:05.176Z,12.82
2018-05-03T08:17:07.727Z,12.93
2018-05-03T08:20:10.147Z,12.79
2018-05-03T08:23:12.635Z,13.01
2018-05-03T08:26:15.216Z,13.49
2018-05-03T08:29:17.649Z,13.67
2018-05-03T08:32:20.127Z,13.38
2018-05-03T08:35:22.561Z,13.52
2018-05-03T08:38:25.060Z,13.47
2018-05-03T08:41:28.454Z,13.54
2018-05-03T08:44:30.965Z,13.63
2018-05-03T08:47:33.453Z,13.37
2018-05-03T08:50:35.911Z,13.89
2018-05-03T08:53:38.386Z,13.62
2018-05-03T08:56:40.828Z,13.51
2018-05-03T08:59:43.307Z,13.67
2018-05-03T09:02:45.767Z,14.04
2018-05-03T09:05:48.237Z,13.88
2018-05-03T09:08:50.713Z,13.89
2018-05-03T09:11:53.187Z,13.98
2018-05-03T09:14:55.717Z,14.17
2018-05-03T09:17:58.236Z,14.24
2018-05-03T09:21:00.756Z,13.77
2018-05-03T09:24:03.202Z,14.23
2018-05-03T09:27:05.662Z,13.98
2018-05-03T09:30:08.127Z,14.30
2018-05-03T09:33:10.603Z,14.59
2018-05-03T09:36:13.176Z,14.56
2018-05-03T09:39:15.723Z,14.65
2018-05-03T09:42:18.269Z,14.50
2018-05-03T09:45:20.743Z,14.42
2018-05-03T09:48:23.212Z,14.13
2018-05-03T09:51:25.681Z,14.35
2018-05-03T09:54:28.167Z,14.59
2018-05-03T09:57:30.637Z,14.87
2018-05-03T10:00:33.149Z,15.26
2018-05-03T10:03:35.609Z,15.72
2018-05-03T10:06:38.183Z,15.43
2018-05-03T10:09:40.721Z,14.72
2018-05-03T10:12:43.182Z,15.01
2018-05-03T10:15:45.665Z,14.73
2018-05-03T10:18:48.143Z,14.88
2018-05-03T10:21:50.607Z,14.91
2018-05-03T10:24:53.129Z,14.85
2018-05-03T10:27:55.578Z,15.06
2018-05-03T10:30:58.059Z,15.08
2018-05-03T10:34:00.612Z,14.87
2018-05-03T10:37:03.058Z,15.09
2018-05-03T10:40:05.632Z,15.38
2018-05-03T10:43:08.101Z,16.06
2018-05-03T10:46:10.606Z,15.95
2018-05-03T10:49:13.113Z,15.58
2018-05-03T10:52:15.584Z,15.17
2018-05-03T10:55:18.059Z,14.69
2018-05-03T10:58:20.613Z,14.98
2018-05-03T11:01:23.083Z,15.11
2018-05-03T11:04:25.552Z,14.70
2018-05-03T11:07:28.014Z,15.08
2018-05-03T11:10:30.508Z,14.94
2018-05-03T11:13:33.000Z,14.97
2018-05-03T11:16:35.504Z,15.23
2018-05-03T11:19:38.117Z,15.60
2018-05-03T11:22:40.658Z,15.31
2018-05-03T11:25:43.156Z,15.26
2018-05-03T11:28:45.612Z,15.21
2018-05-03T11:31:48.187Z,15.52
2018-05-03T11:34:50.639Z,15.39
2018-05-03T11:37:53.102Z,15.29
2018-05-03T11:40:55.658Z,15.40
2018-05-03T11:43:58.122Z,15.34
2018-05-03T11:47:00.618Z,15.73
2018-05-03T11:50:03.117Z,15.54
2018-05-03T11:53:05.587Z,15.38
2018-05-03T11:56:08.064Z,15.08
2018-05-03T11:59:10.626Z,14.89
2018-05-03T12:02:13.069Z,15.23
2018-05-03T12:05:15.500Z,15.78
2018-05-03T12:08:18.014Z,15.59
2018-05-03T12:11:20.563Z,15.76
2018-05-03T12:14:23.137Z,15.18
2018-05-03T12:17:26.229Z,15.07
2018-05-03T12:20:28.784Z,15.33
2018-05-03T12:23:31.310Z,15.51
2018-05-03T12:26:33.784Z,15.06
2018-05-03T12:29:36.288Z,15.24
2018-05-03T12:32:38.747Z,15.36
2018-05-03T12:35:41.293Z,15.21
2018-05-03T12:38:43.792Z,15.15
2018-05-03T12:41:46.295Z,15.52
2018-05-03T12:44:49.983Z,15.80
2018-05-03T12:47:52.452Z,15.37
2018-05-03T12:50:54.922Z,15.33
2018-05-03T12:53:57.418Z,15.52
2018-05-03T12:56:59.859Z,15.63
2018-05-03T13:00:02.359Z,15.65
2018-05-03T13:03:04.855Z,15.52
2018-05-03T13:06:07.403Z,15.91
2018-05-03T13:09:09.886Z,15.85
2018-05-03T13:12:12.344Z,15.47
2018-05-03T13:15:14.849Z,15.57
2018-05-03T13:18:17.348Z,16.26
2018-05-03T13:21:19.802Z,16.79
2018-05-03T13:24:22.309Z,16.93
2018-05-03T13:27:24.747Z,16.54
2018-05-03T13:30:27.283Z,15.65
2018-05-03T13:33:29.748Z,15.98
2018-05-03T13:36:32.243Z,15.47
2018-05-03T13:39:34.719Z,15.65
2018-05-03T13:42:37.188Z,15.55
2018-05-03T13:45:39.654Z,16.02
2018-05-03T13:48:42.105Z,15.80
2018-05-03T13:51:44.609Z,15.78
2018-05-03T13:54:47.088Z,15.54
2018-05-03T13:57:49.578Z,15.62
2018-05-03T14:00:52.227Z,15.88
2018-05-03T14:03:54.684Z,15.75
2018-05-03T14:06:57.145Z,16.28
2018-05-03T14:09:59.666Z,16.58
2018-05-03T14:13:02.162Z,16.81
2018-05-03T14:16:04.634Z,16.87
2018-05-03T14:19:07.211Z,17.59
2018-05-03T14:22:09.783Z,16.64
2018-05-03T14:25:12.286Z,16.81
2018-05-03T14:28:14.784Z,16.56
2018-05-03T14:31:17.346Z,16.76
2018-05-03T14:34:19.814Z,16.43
2018-05-03T14:37:22.361Z,16.31
2018-05-03T14:40:24.802Z,16.69
2018-05-03T14:43:27.285Z,16.13
2018-05-03T14:46:29.851Z,16.34
2018-05-03T14:49:33.191Z,16.60
2018-05-03T14:52:35.691Z,16.62
2018-05-03T14:55:38.136Z,16.18
2018-05-03T14:58:40.619Z,16.59
2018-05-03T15:01:43.071Z,17.02
2018-05-03T15:04:45.562Z,16.64
2018-05-03T15:07:48.053Z,16.39
2018-05-03T15:10:50.572Z,16.42
2018-05-03T15:13:53.026Z,16.54
2018-05-03T15:16:55.545Z,16.39
2018-05-03T15:19:58.025Z,16.60
2018-05-03T15:23:00.520Z,16.73
2018-05-03T15:26:03.100Z,16.37
2018-05-03T15:29:05.562Z,15.93
2018-05-03T15:32:08.083Z,16.30
2018-05-03T15:35:10.559Z,16.43
2018-05-03T15:38:13.055Z,16.12
2018-05-03T15:41:15.500Z,16.27
2018-05-03T15:44:18.144Z,16.46
2018-05-03T15:47:20.657Z,16.47
2018-05-03T15:50:23.148Z,16.31
2018-05-03T15:53:25.609Z,16.35
2018-05-03T15:56:28.158Z,16.27
2018-05-03T15:59:30.680Z,16.16
2018-05-03T16:02:33.195Z,16.14
2018-05-03T16:05:35.775Z,15.85
2018-05-03T16:08:38.253Z,15.77
2018-05-03T16:11:40.721Z,15.71
2018-05-03T16:14:43.180Z,15.73
2018-05-03T16:17:45.702Z,15.56
2018-05-03T16:20:48.146Z,15.58
2018-05-03T16:23:50.692Z,15.89
2018-05-03T16:26:53.178Z,15.86
2018-05-03T16:29:55.717Z,15.83
2018-05-03T16:32:58.210Z,15.89
2018-05-03T16:36:00.700Z,15.91
2018-05-03T16:39:03.192Z,15.58
2018-05-03T16:42:05.670Z,15.67
2018-05-03T16:45:08.126Z,15.90
2018-05-03T16:48:10.648Z,15.67
2018-05-03T16:51:13.148Z,15.70
2018-05-03T16:54:15.671Z,15.27
2018-05-03T16:57:18.175Z,15.41
2018-05-03T17:00:20.735Z,15.42
2018-05-03T17:03:23.217Z,15.19
2018-05-03T17:06:25.722Z,15.11
2018-05-03T17:09:28.254Z,15.03
2018-05-03T17:15:39.416Z,15.40
2018-05-03T17:18:41.892Z,15.41
2018-05-03T17:21:44.464Z,15.53
2018-05-03T17:24:47.008Z,15.38
2018-05-03T17:27:49.599Z,15.13
2018-05-03T17:30:52.001Z,15.14
2018-05-03T17:33:54.553Z,15.11
2018-05-03T17:36:57.146Z,14.93
2018-05-03T17:39:59.653Z,15.00
2018-05-03T17:43:02.135Z,14.96
2018-05-03T17:46:04.642Z,14.85
2018-05-03T17:49:07.211Z,14.83
2018-05-03T17:52:09.783Z,14.94
2018-05-03T17:55:12.333Z,15.45
2018-05-03T17:58:14.866Z,16.25
2018-05-03T18:01:17.330Z,16.81
2018-05-03T18:04:19.824Z,16.84
2018-05-03T18:07:22.307Z,16.45
2018-05-03T18:10:24.771Z,15.86
2018-05-03T18:13:27.267Z,15.63
2018-05-03T18:16:29.989Z,15.30
2018-05-03T18:19:32.525Z,15.14
2018-05-03T18:22:35.090Z,14.93
2018-05-03T18:25:37.607Z,14.68
2018-05-03T18:28:40.113Z,14.48
2018-05-03T18:31:42.597Z,14.27
2018-05-03T18:34:45.089Z,14.09
2018-05-03T18:37:47.649Z,13.90
2018-05-03T18:40:50.154Z,13.71
2018-05-03T18:43:52.732Z,13.43
2018-05-03T18:46:55.177Z,13.25
2018-05-03T18:49:57.758Z,13.29
2018-05-03T18:53:00.252Z,13.29
2018-05-03T18:56:02.734Z,13.30
2018-05-03T18:59:05.272Z,13.21
2018-05-03T19:02:07.742Z,13.23
2018-05-03T19:05:10.257Z,13.22
2018-05-03T19:08:12.718Z,13.15
2018-05-03T19:11:15.214Z,13.10
2018-05-03T19:14:17.744Z,13.01
2018-05-03T19:17:20.407Z,12.89
2018-05-03T19:20:23.003Z,12.80
2018-05-03T19:23:25.544Z,12.75
2018-05-03T19:26:28.099Z,12.70
2018-05-03T19:29:30.610Z,12.62
2018-05-03T19:32:33.089Z,12.53
2018-05-03T19:35:35.643Z,12.42
2018-05-03T19:38:38.224Z,12.35
2018-05-03T19:41:40.804Z,12.28
2018-05-03T19:44:43.323Z,12.14
2018-05-03T19:47:45.903Z,12.17
2018-05-03T19:50:48.376Z,12.07
2018-05-03T19:53:50.903Z,12.00
2018-05-03T19:56:53.500Z,11.92
2018-05-03T19:59:56.047Z,11.87
2018-05-03T20:02:58.525Z,11.82
2018-05-03T20:06:01.046Z,11.76
2018-05-03T20:09:03.555Z,11.63
2018-05-03T20:12:06.123Z,11.58
2018-05-03T20:15:08.674Z,11.46
2018-05-03T20:18:11.151Z,11.41
2018-05-03T20:21:13.684Z,11.36
2018-05-03T20:24:16.276Z,11.28
2018-05-03T20:27:18.778Z,11.22
2018-05-03T20:30:21.279Z,11.11
2018-05-03T20:33:23.798Z,11.01
2018-05-03T20:36:26.319Z,10.88
2018-05-03T20:39:28.840Z,10.80
2018-05-03T20:42:31.300Z,10.87
2018-05-03T20:45:33.834Z,10.86
2018-05-03T20:48:36.372Z,10.86
2018-05-03T20:51:38.875Z,10.80
2018-05-03T20:54:41.381Z,10.71
2018-05-03T20:57:43.984Z,10.64
2018-05-03T21:00:46.453Z,10.54
2018-05-03T21:03:48.939Z,10.43
2018-05-03T21:06:51.400Z,10.35
2018-05-03T21:09:53.904Z,10.20
2018-05-03T21:12:56.377Z,10.14
2018-05-03T21:15:58.873Z,10.06
2018-05-03T21:19:01.473Z,10.06
2018-05-03T21:22:04.043Z,9.97
2018-05-03T21:25:06.490Z,9.86
2018-05-03T21:28:08.966Z,9.75
2018-05-03T21:31:11.439Z,9.63
2018-05-03T21:34:13.908Z,9.49
2018-05-03T21:37:16.428Z,9.42
2018-05-03T21:40:18.901Z,9.39
2018-05-03T21:43:21.381Z,9.33
2018-05-03T21:46:23.939Z,9.27
2018-05-03T21:49:26.374Z,9.33
2018-05-03T21:52:29.018Z,9.35
2018-05-03T21:55:31.379Z,9.24
2018-05-03T21:58:33.855Z,9.20
2018-05-03T22:01:36.349Z,9.16
2018-05-03T22:04:38.869Z,9.00
2018-05-03T22:07:41.326Z,9.05
2018-05-03T22:10:43.826Z,8.97
2018-05-03T22:13:46.369Z,8.90
2018-05-03T22:16:48.853Z,8.81
2018-05-03T22:19:51.344Z,8.64
2018-05-03T22:22:53.817Z,8.59
2018-05-03T22:25:56.313Z,8.52
2018-05-03T22:28:58.774Z,8.47
2018-05-03T22:32:01.225Z,8.43
2018-05-03T22:35:03.706Z,8.45
2018-05-03T22:38:06.179Z,8.38
2018-05-03T22:41:08.656Z,8.30
2018-05-03T22:44:11.105Z,8.23
2018-05-03T22:47:13.579Z,8.21
2018-05-03T22:50:16.095Z,8.14
2018-05-03T22:53:18.599Z,8.08
2018-05-03T22:56:21.047Z,8.09
2018-05-03T22:59:23.551Z,8.02
2018-05-03T23:02:26.091Z,7.98
2018-05-03T23:05:28.521Z,7.91
2018-05-03T23:08:31.002Z,7.84
2018-05-03T23:11:33.564Z,7.76
2018-05-03T23:14:36.031Z,7.68
2018-05-03T23:17:38.502Z,7.63
2018-05-03T23:20:40.976Z,7.58
2018-05-03T23:23:43.489Z,7.59
2018-05-03T23:26:45.973Z,7.56
2018-05-03T23:29:48.501Z,7.52
2018-05-03T23:32:51.082Z,7.44
2018-05-03T23:35:53.580Z,7.38
2018-05-03T23:38:56.145Z,7.30
2018-05-03T23:41:58.576Z,7.24
2018-05-03T23:45:01.135Z,7.17
2018-05-03T23:48:03.601Z,7.13
2018-05-03T23:51:06.076Z,7.12
2018-05-03T23:54:08.601Z,7.13
2018-05-03T23:57:11.066Z,7.16
